Nearby METAR Reports

 

KSHV - Shreveport, Louisiana, USA
Distance from station: NW 8mi, 13km
Updated: Fri, 19-Jul-2024 12:56am CDT
Mostly cloudy
Mostly cloudy
 Wind from NNE
Wind: NNE 9 mph, 15 km/h
Temperature: 77°F, 25°C
Dew Point: 72°F, 22°C
Humidity: 83%
Barometer: 30.04 inHg, 1017.3 hPa
Clouds: Mostly cloudy
Visibility: 10 miles, 16 km
Cloud details: Few Clouds 1200 ft
Partly cloudy 4200 ft
Mostly cloudy 6000 ft
2024/07/19 05:56 KSHV 190556Z 03008KT 10SM FEW012 SCT042 BKN060 25/22 A3004 RMK SLPNO
KBAD - Barksdale Afb, Louisiana, USA
Distance from station: NNE 9mi, 14km
Updated: Fri, 19-Jul-2024 12:55am CDT
Mostly cloudy
Mostly cloudy
 Wind from NE
Wind: NE 8 mph, 13 km/h
Temperature: 75°F, 24°C
Dew Point: 72°F, 22°C
Humidity: 89%
Barometer: 30.03 inHg, 1016.9 hPa
Clouds: Mostly cloudy
Visibility: 10 miles, 16 km
Cloud details: Few Clouds 4600 ft
Few Clouds 7500 ft
Mostly cloudy 10000 ft
2024/07/19 05:55 KBAD 190555Z AUTO 04007KT 10SM FEW046 FEW075 BKN100 24/22 A3003 RMK AO2 SLP171 60000 T02430220 10282 20243 402930230 50005
KDTN - Shreveport/Dwntn, Louisiana, USA
Distance from station: N 12mi, 19km
Updated: Fri, 19-Jul-2024 12:53am CDT
Overcast
Overcast
 Wind from NE
Wind: NE 10 mph, 17 km/h, Gust: 17 mph, 28 km/h
Temperature: 75°F, 24°C
Dew Point: 72°F, 22°C
Humidity: 89%
Barometer: 30.04 inHg, 1017.3 hPa
Clouds: Overcast
Visibility: 10 miles, 16 km
Cloud details: Few Clouds 4300 ft
Mostly cloudy 7500 ft
Overcast 12000 ft
2024/07/19 05:53 KDTN 190553Z AUTO 04009G15KT 10SM FEW043 BKN075 OVC120 24/22 A3004 RMK AO2 SLP170 60003 T02440217 10267 20244 403110239 50005
 
K3F3 - Mansfield, Louisiana, USA
Distance from station: S 22mi, 36km
Updated: Fri, 19-Jul-2024 1:15am CDT
Overcast
Overcast
 Wind from ENE
Wind: ENE 6 mph, 9 km/h
Temperature: 77°F, 25°C
Dew Point: 75°F, 24°C
Humidity: 94%
Barometer: 30.07 inHg, 1018.3 hPa
Clouds: Overcast
Visibility: 10 miles, 16 km
Cloud details: Partly cloudy 1000 ft
Mostly cloudy 2000 ft
Overcast 4800 ft
2024/07/19 06:15 K3F3 190615Z AUTO 06005KT 10SM SCT010 BKN020 OVC048 25/24 A3007 RMK AO2 LTG DSNT SE T02450238
KASL - Marshall, Texas, USA
Distance from station: WNW 35mi, 56km
Updated: Fri, 19-Jul-2024 1:15am CDT
Partly cloudy
Partly cloudy
 Wind from calm
Wind: Calm
Temperature: 73°F, 23°C
Dew Point: 73°F, 23°C
Humidity: 100%
Barometer: 30.04 inHg, 1017.3 hPa
Clouds: Partly cloudy
Visibility: 8 miles, 13 km
Cloud details: Few Clouds 1300 ft
Partly cloudy 2400 ft
2024/07/19 06:15 KASL 190615Z AUTO 00000KT 8SM FEW013 SCT024 23/23 A3004 RMK AO2 RAE0559 FEW V SCT P0001 T02330233 $
KF17 - Center, Texas, USA
Distance from station: SSW 46mi, 73km
Updated: Fri, 19-Jul-2024 1:15am CDT
Overcast
Overcast
 Wind from calm
Wind: Calm
Temperature: 73°F, 23°C
Dew Point: 72°F, 22°C
Humidity: 94%
Barometer: 30.04 inHg, 1017.3 hPa
Clouds: Overcast
Visibility: 10 miles, 16 km
Cloud details: Partly cloudy 2500 ft
Partly cloudy 3100 ft
Overcast 4800 ft
2024/07/19 06:15 KF17 190615Z AUTO 00000KT 10SM SCT025 SCT031 OVC048 23/22 A3004 RMK AO2
 
KGGG - Longview, Texas, USA
Distance from station: W 58mi, 93km
Updated: Fri, 19-Jul-2024 12:53am CDT
Light rain, Overcast
Light rain, Overcast
 Wind from E
Wind: E 6 mph, 9 km/h
Temperature: 73°F, 23°C
Dew Point: 72°F, 22°C
Humidity: 94%
Barometer: 30.04 inHg, 1017.3 hPa
Summary: Light rain
Clouds: Overcast
Visibility: 10 miles, 16 km
Cloud details: Partly cloudy 5500 ft
Overcast 7500 ft
2024/07/19 05:53 KGGG 190553Z AUTO 08005KT 10SM -RA SCT055 OVC075 23/22 A3004 RMK AO2 TSB0456 SLP167 P0010 60010 T02280222 10272 20228 403000228 50006
KIER - Natchitoches, Louisiana, USA
Distance from station: SE 58mi, 93km
Updated: Fri, 19-Jul-2024 1:15am CDT
Mostly cloudy
Mostly cloudy
 Wind from calm
Wind: Calm
Temperature: 77°F, 25°C
Dew Point: 77°F, 25°C
Humidity: 100%
Barometer: 30.01 inHg, 1016.3 hPa
Clouds: Mostly cloudy
Visibility: 10 miles, 16 km
Cloud details: Partly cloudy 2800 ft
Mostly cloudy 4400 ft
Mostly cloudy 5000 ft
2024/07/19 06:15 KIER 190615Z AUTO 00000KT 10SM SCT028 BKN044 BKN050 25/25 A3001 RMK AO2 LTG DSNT W T02450245
KTXK - Texarkana, Arkansas, USA
Distance from station: NNW 75mi, 121km
Updated: Fri, 19-Jul-2024 12:53am CDT
Clear
Clear
 Wind from E
Wind: E 3 mph, 6 km/h
Temperature: 75°F, 24°C
Dew Point: 70°F, 21°C
Humidity: 83%
Barometer: 30.06 inHg, 1017.9 hPa
Clouds: Clear
Visibility: 10 miles, 16 km
2024/07/19 05:53 KTXK 190553Z AUTO 09003KT 10SM CLR 24/21 A3006 RMK AO2 SLP173 T02390206 10294 20239 403220228 50003
 
KMCJ - Houston/Univ, Texas, USA
Distance from station: SSE 7mi, 11km
Updated: Mon, 08-Jul-2024 4:55pm CDT
NOT Current
Mostly cloudy
Mostly cloudy
 Wind from WNW
Wind: WNW 13 mph, 20 km/h, Gust: 28 mph, 44 km/h
Temperature: 82°F, 28°C
Heat Index: 86°F, 30°C
Dew Point: 72°F, 22°C
Humidity: 70%
Barometer: 29.77 inHg, 1008.1 hPa
Clouds: Mostly cloudy
Cloud details: Mostly cloudy 3300 ft
Mostly cloudy 4200 ft
2024/07/08 21:55 KMCJ 082155Z AUTO 29011G24KT 260V320 BKN033 BKN042 28/22 A2977 RMK A01
KIAH - Houston/Intnl, Texas, USA
Distance from station: NNE 14mi, 23km
Updated: Fri, 19-Jul-2024 12:53am CDT
Few Clouds
Few Clouds
 Wind from S
Wind: S 3 mph, 6 km/h
Temperature: 77°F, 25°C
Dew Point: 73°F, 23°C
Humidity: 89%
Barometer: 30.00 inHg, 1015.9 hPa
Clouds: Few Clouds
Visibility: 10 miles, 16 km
Cloud details: Few Clouds 3500 ft
2024/07/19 05:53 KIAH 190553Z 18003KT 10SM FEW035 25/23 A3000 RMK AO2 SLP157 T02500228 10300 20244 403060233 50004
KNEW - New Orleans/Lake, Louisiana, USA
Distance from station: NE 7mi, 11km
Updated: Fri, 19-Jul-2024 12:53am CDT
Clear
Clear
 Wind from SSE
Wind: SSE 3 mph, 6 km/h
Temperature: 79°F, 26°C
Dew Point: 75°F, 24°C
Humidity: 89%
Barometer: 30.01 inHg, 1016.3 hPa
Clouds: Clear
Visibility: 10 miles, 16 km
2024/07/19 05:53 KNEW 190553Z AUTO 15003KT 10SM CLR 26/24 A3001 RMK AO2 SLP155 T02610239 10278 20261 403330244 50000
 
KMSY - New Orleans/Intl, Louisiana, USA
Distance from station: WNW 9mi, 15km
Updated: Fri, 19-Jul-2024 12:53am CDT
Few Clouds
Few Clouds
 Wind from calm
Wind: Calm
Temperature: 75°F, 24°C
Dew Point: 75°F, 24°C
Humidity: 100%
Barometer: 30.00 inHg, 1015.9 hPa
Clouds: Few Clouds
Visibility: 10 miles, 16 km
Cloud details: Few Clouds 2000 ft
Few Clouds 25000 ft
2024/07/19 05:53 KMSY 190553Z 00000KT 10SM FEW020 FEW250 24/24 A3000 RMK AO2 SLP163 T02440239 10261 20244 403280233 58000
Davis Instruments Weather-Display MidSouth Network Weather Underground ** ** PLEASE DESCRIBE THIS IMAGE ** Windy.com Citizen Weather Observer Program
Free counters!
Free counters!